createdAt,value
2023-05-04T00:00:54.339Z,57.09
2023-05-04T00:05:57.200Z,57.21
2023-05-04T00:11:00.108Z,56.96
2023-05-04T00:16:03.217Z,55.70
2023-05-04T00:21:06.807Z,55.52
2023-05-04T00:26:09.738Z,54.94
2023-05-04T00:31:13.576Z,54.43
2023-05-04T00:36:16.564Z,54.34
2023-05-04T00:41:20.298Z,54.08
2023-05-04T00:46:23.627Z,53.18
2023-05-04T00:51:27.546Z,52.99
2023-05-04T00:56:30.767Z,52.37
2023-05-04T01:01:33.618Z,51.84
2023-05-04T01:06:48.396Z,51.42
2023-05-04T01:12:00.638Z,50.96
2023-05-04T01:17:05.876Z,50.64
2023-05-04T01:22:08.846Z,50.32
2023-05-04T01:27:22.999Z,49.91
2023-05-04T01:32:28.519Z,49.57
2023-05-04T01:37:34.015Z,49.41
2023-05-04T01:42:36.903Z,48.93
2023-05-04T01:47:40.773Z,48.48
2023-05-04T01:52:43.785Z,47.59
2023-05-04T01:57:47.178Z,46.66
2023-05-04T02:02:50.169Z,45.94
2023-05-04T02:07:55.448Z,45.58
2023-05-04T02:12:58.485Z,44.92
2023-05-04T02:18:01.782Z,44.08
2023-05-04T02:23:04.743Z,43.28
2023-05-04T02:28:07.843Z,42.87
2023-05-04T02:33:11.201Z,42.79
2023-05-04T02:38:14.214Z,41.89
2023-05-04T02:43:17.636Z,41.75
2023-05-04T02:48:20.397Z,41.07
2023-05-04T02:53:23.717Z,40.26
2023-05-04T02:58:26.746Z,39.66
2023-05-04T03:03:29.972Z,38.33
2023-05-04T03:08:32.940Z,37.68
2023-05-04T03:13:35.922Z,36.96
2023-05-04T03:23:59.972Z,35.15
2023-05-04T03:29:03.644Z,34.91
2023-05-04T03:34:06.757Z,34.00
2023-05-04T03:39:09.913Z,34.17
2023-05-04T03:44:12.886Z,33.78
2023-05-04T03:49:16.190Z,33.89
2023-05-04T03:54:19.648Z,33.74
2023-05-04T03:59:22.680Z,33.72
2023-05-04T04:04:26.070Z,33.31
2023-05-04T04:09:29.395Z,33.07
2023-05-04T04:14:32.689Z,33.00
2023-05-04T04:19:35.818Z,31.95
2023-05-04T04:24:38.780Z,31.21
2023-05-04T04:29:41.971Z,30.55
2023-05-04T04:34:45.340Z,29.56
2023-05-04T04:39:48.320Z,29.17
2023-05-04T04:44:52.624Z,29.02
2023-05-04T04:49:55.700Z,29.20
2023-05-04T04:54:58.541Z,29.12
2023-05-04T05:00:02.220Z,28.12
2023-05-04T05:05:08.424Z,27.83
2023-05-04T05:10:11.645Z,27.85
2023-05-04T05:15:14.799Z,28.22
2023-05-04T05:20:17.714Z,28.46
2023-05-04T05:25:20.773Z,28.10
2023-05-04T05:30:23.763Z,27.92
2023-05-04T05:35:26.613Z,27.20
2023-05-04T05:40:29.827Z,26.25
2023-05-04T05:45:32.632Z,25.72
2023-05-04T05:50:35.690Z,25.28
2023-05-04T05:55:38.565Z,25.06
2023-05-04T06:00:41.465Z,24.92
2023-05-04T06:05:44.484Z,24.57
2023-05-04T06:10:47.386Z,24.53
2023-05-04T06:15:54.161Z,24.34
2023-05-04T06:21:01.059Z,23.31
2023-05-04T06:26:08.636Z,23.13
2023-05-04T06:31:11.466Z,23.23
2023-05-04T06:36:14.586Z,23.04
2023-05-04T06:41:19.923Z,22.42
2023-05-04T06:46:22.745Z,23.05
2023-05-04T06:51:25.747Z,22.66
2023-05-04T06:56:28.595Z,22.43
2023-05-04T07:01:31.669Z,22.64
2023-05-04T07:06:34.725Z,22.48
2023-05-04T07:11:37.768Z,22.55
2023-05-04T07:16:41.029Z,22.52
2023-05-04T07:21:44.084Z,22.79
2023-05-04T07:26:46.986Z,23.66
2023-05-04T07:31:49.876Z,23.39
2023-05-04T07:36:52.728Z,23.55
2023-05-04T07:41:55.555Z,24.02
2023-05-04T07:47:02.165Z,24.36
2023-05-04T07:52:05.678Z,24.41
2023-05-04T07:57:08.544Z,24.26
2023-05-04T08:02:12.131Z,24.19
2023-05-04T08:07:19.286Z,23.82
2023-05-04T08:12:22.305Z,23.43
2023-05-04T08:17:25.490Z,23.67
2023-05-04T08:22:28.309Z,23.51
2023-05-04T08:27:31.267Z,23.34
2023-05-04T08:32:34.196Z,23.02
2023-05-04T08:37:37.757Z,22.76
2023-05-04T08:42:40.841Z,22.87
2023-05-04T08:47:43.923Z,23.46
2023-05-04T08:52:47.666Z,23.52
2023-05-04T08:57:51.336Z,23.37
2023-05-04T09:02:54.674Z,23.68
2023-05-04T09:07:58.637Z,23.35
2023-05-04T09:13:01.593Z,23.48
2023-05-04T09:18:06.284Z,23.46
2023-05-04T09:23:09.951Z,24.00
2023-05-04T09:28:14.584Z,24.27
2023-05-04T09:33:17.500Z,24.56
2023-05-04T09:38:27.334Z,24.74
2023-05-04T09:43:45.186Z,24.79
2023-05-04T09:48:52.863Z,24.96
2023-05-04T09:53:58.801Z,25.31
2023-05-04T09:59:02.381Z,25.69
2023-05-04T10:04:05.520Z,25.98
2023-05-04T10:09:08.752Z,26.07
2023-05-04T10:14:11.746Z,26.08
2023-05-04T10:19:45.091Z,26.47
2023-05-04T10:25:20.688Z,26.53
2023-05-04T10:30:24.032Z,26.62
2023-05-04T10:35:28.256Z,26.53
2023-05-04T10:40:37.828Z,26.61
2023-05-04T10:45:42.249Z,26.51
2023-05-04T10:50:50.302Z,26.18
2023-05-04T10:55:53.481Z,26.09
2023-05-04T11:00:56.710Z,25.74
2023-05-04T11:05:59.862Z,25.83
2023-05-04T11:11:07.036Z,25.87
2023-05-04T11:16:13.028Z,25.75
2023-05-04T11:21:36.341Z,25.72
2023-05-04T11:26:49.703Z,25.80
2023-05-04T11:31:56.736Z,26.26
2023-05-04T11:36:59.883Z,26.77
2023-05-04T11:42:08.135Z,27.25
2023-05-04T11:47:11.051Z,27.81
2023-05-04T11:52:13.909Z,27.96
2023-05-04T11:57:23.819Z,28.26
2023-05-04T12:02:27.403Z,28.34
2023-05-04T12:07:30.649Z,28.41
2023-05-04T12:12:37.061Z,28.51
2023-05-04T12:17:41.930Z,28.77
2023-05-04T12:22:44.909Z,29.12
2023-05-04T12:27:47.801Z,29.37
2023-05-04T12:32:50.651Z,29.63
2023-05-04T12:37:53.867Z,29.94
2023-05-04T12:42:57.114Z,30.13
2023-05-04T12:48:00.278Z,30.41
2023-05-04T12:53:04.897Z,30.92
2023-05-04T12:58:07.804Z,31.22
2023-05-04T13:03:13.211Z,31.68
2023-05-04T13:08:18.933Z,31.61
2023-05-04T13:13:26.565Z,32.01
2023-05-04T13:18:29.541Z,32.26
2023-05-04T13:23:32.406Z,32.67
2023-05-04T13:28:36.288Z,33.20
2023-05-04T13:33:41.621Z,33.47
2023-05-04T13:38:44.511Z,34.39
2023-05-04T13:43:47.458Z,34.88
2023-05-04T13:48:50.479Z,34.80
2023-05-04T13:53:53.311Z,35.11
2023-05-04T13:58:56.348Z,35.68
2023-05-04T14:03:59.408Z,35.89
2023-05-04T14:09:02.335Z,36.04
2023-05-04T14:14:05.155Z,36.85
2023-05-04T14:19:08.084Z,36.37
2023-05-04T14:24:11.095Z,36.52
2023-05-04T14:29:14.016Z,36.32
2023-05-04T14:34:17.314Z,36.27
2023-05-04T14:39:20.243Z,36.88
2023-05-04T14:44:23.674Z,37.09
2023-05-04T14:49:36.758Z,37.63
2023-05-04T14:54:43.521Z,38.29
2023-05-04T14:59:46.326Z,38.56
2023-05-04T15:04:49.605Z,38.85
2023-05-04T15:09:52.510Z,38.28
2023-05-04T15:14:55.438Z,38.30
2023-05-04T15:19:58.436Z,38.20
2023-05-04T15:25:02.294Z,37.83
2023-05-04T15:30:09.311Z,37.48
2023-05-04T15:35:12.368Z,37.36
2023-05-04T15:40:15.427Z,36.90
2023-05-04T15:45:18.701Z,37.05
2023-05-04T15:50:22.197Z,37.50
2023-05-04T15:55:26.284Z,37.86
2023-05-04T16:00:30.127Z,37.80
2023-05-04T16:05:33.162Z,38.10
2023-05-04T16:10:36.653Z,38.07
2023-05-04T16:15:40.407Z,37.67
2023-05-04T16:20:43.442Z,38.11
2023-05-04T16:25:46.356Z,37.85
2023-05-04T16:30:50.060Z,37.74
2023-05-04T16:35:53.552Z,37.96
2023-05-04T16:40:56.508Z,38.03
2023-05-04T16:45:59.613Z,37.66
2023-05-04T16:51:02.532Z,37.87
2023-05-04T16:56:06.061Z,37.64
2023-05-04T17:01:10.955Z,37.72
2023-05-04T17:06:14.195Z,37.45
2023-05-04T17:11:17.246Z,37.45
2023-05-04T17:16:20.153Z,37.28
2023-05-04T17:21:23.219Z,37.35
2023-05-04T17:26:26.376Z,37.56
2023-05-04T17:31:29.362Z,37.80
2023-05-04T17:36:32.769Z,38.20
2023-05-04T17:41:35.827Z,38.80
2023-05-04T17:46:38.921Z,39.25
2023-05-04T17:51:41.894Z,39.70
2023-05-04T17:56:44.723Z,40.01
2023-05-04T18:01:47.580Z,40.40
2023-05-04T18:06:51.014Z,40.53
2023-05-04T18:11:54.029Z,40.83
2023-05-04T18:16:57.148Z,40.98
2023-05-04T18:22:00.150Z,40.94
2023-05-04T18:27:03.445Z,41.16
2023-05-04T18:32:09.318Z,41.33
2023-05-04T18:37:12.325Z,41.03
2023-05-04T18:42:15.255Z,41.16
2023-05-04T18:47:18.169Z,40.88
2023-05-04T18:52:22.168Z,40.85
2023-05-04T18:57:25.143Z,41.36
2023-05-04T19:02:30.342Z,41.54
2023-05-04T19:07:33.335Z,41.42
2023-05-04T19:12:36.782Z,41.46
2023-05-04T19:17:39.782Z,40.99
2023-05-04T19:22:42.737Z,41.00
2023-05-04T19:27:47.437Z,41.01
2023-05-04T19:32:51.056Z,40.83
2023-05-04T19:37:54.771Z,41.15
2023-05-04T19:42:57.717Z,41.65
2023-05-04T19:48:00.690Z,41.40
2023-05-04T19:53:05.185Z,41.65
2023-05-04T19:58:08.151Z,41.67
2023-05-04T20:03:11.280Z,41.80
2023-05-04T20:08:14.416Z,41.75
2023-05-04T20:13:17.391Z,41.61
2023-05-04T20:18:20.532Z,41.60
2023-05-04T20:23:23.603Z,41.54
2023-05-04T20:28:26.605Z,41.04
2023-05-04T20:33:29.476Z,41.31
2023-05-04T20:38:32.912Z,41.67
2023-05-04T20:43:36.330Z,41.79
2023-05-04T20:48:39.496Z,42.21
2023-05-04T20:53:42.757Z,42.15
2023-05-04T20:58:45.558Z,42.13
2023-05-04T21:03:48.932Z,41.79
2023-05-04T21:08:51.926Z,41.75
2023-05-04T21:13:54.806Z,41.77
2023-05-04T21:18:57.636Z,41.32
2023-05-04T21:24:00.549Z,41.55
2023-05-04T21:29:03.484Z,41.33
2023-05-04T21:34:06.758Z,41.78
2023-05-04T21:39:09.651Z,41.57
2023-05-04T21:44:15.905Z,41.81
2023-05-04T21:49:19.752Z,41.88
2023-05-04T21:54:24.097Z,41.66
2023-05-04T21:59:26.967Z,41.41
2023-05-04T22:04:30.746Z,41.26
2023-05-04T22:09:33.695Z,41.14
2023-05-04T22:14:36.735Z,41.14
2023-05-04T22:19:39.672Z,41.39
2023-05-04T22:24:42.963Z,40.90
2023-05-04T22:29:45.805Z,41.03
2023-05-04T22:34:48.649Z,40.87
2023-05-04T22:39:51.463Z,41.01
2023-05-04T22:44:54.216Z,40.99
2023-05-04T22:49:57.397Z,41.35
2023-05-04T22:55:00.149Z,41.39
2023-05-04T23:00:08.310Z,41.36
2023-05-04T23:05:11.485Z,41.33
2023-05-04T23:10:14.325Z,41.48
2023-05-04T23:15:18.545Z,41.80
2023-05-04T23:20:21.473Z,41.69
2023-05-04T23:25:24.382Z,41.39
2023-05-04T23:30:27.289Z,41.48
2023-05-04T23:35:30.117Z,41.17
2023-05-04T23:40:33.192Z,40.97
2023-05-04T23:45:36.048Z,40.54
2023-05-04T23:50:39.335Z,40.55
2023-05-04T23:55:42.130Z,40.26
